Agency, Missouri
Current Conditions -  °F | °C
As of 3:53 PM on Friday 31 Oct 2014 (Local Time) from KSTJ Reporting Station
Clear Clear  
Wind Chill: 43°   Ceiling: Unl
Heat Index: 47°   Visibility: 10mi
Dew Point: 17°   Wind: 9mph
Humidity: 30%   Direction: 360°N
Pressure: 30.47"   Gusts: 23mph
Location:  39.64°N, 94.74°W
Report Text: KSTJ 312053Z AUTO 36008G20KT 10SM CLR 08/M08 A3047 RMK AO2 SLP323 T00831083 56015
Loading
Personal Weather Stations






























Interactive Weather Map
Tropical Storm Tracking
New forecast layout! Learn more

10-Day Weather Forecast

Advertisements
Track Severe Weather on mobile